createdAt,value
2019-02-26T00:02:11.425Z,17.17
2019-02-26T00:04:41.783Z,17.80
2019-02-26T00:07:14.222Z,17.30
2019-02-26T00:09:43.903Z,17.93
2019-02-26T00:12:13.736Z,16.67
2019-02-26T00:14:45.360Z,17.03
2019-02-26T00:17:17.462Z,16.60
2019-02-26T00:19:47.385Z,17.67
2019-02-26T00:22:18.247Z,17.40
2019-02-26T00:24:48.391Z,17.10
2019-02-26T00:27:18.333Z,17.37
2019-02-26T00:29:49.249Z,16.77
2019-02-26T00:32:20.500Z,17.17
2019-02-26T00:34:50.517Z,16.53
2019-02-26T00:37:22.238Z,16.73
2019-02-26T00:39:54.122Z,15.87
2019-02-26T00:42:26.221Z,16.60
2019-02-26T00:44:58.273Z,16.27
2019-02-26T00:47:29.893Z,16.77
2019-02-26T00:49:59.419Z,17.50
2019-02-26T00:52:30.404Z,16.80
2019-02-26T00:55:03.164Z,17.30
2019-02-26T00:57:33.562Z,16.43
2019-02-26T01:00:09.813Z,15.93
2019-02-26T01:02:39.604Z,16.80
2019-02-26T01:05:12.932Z,16.43
2019-02-26T01:07:44.915Z,16.77
2019-02-26T01:10:16.143Z,16.87
2019-02-26T01:12:46.041Z,17.53
2019-02-26T01:15:18.903Z,17.83
2019-02-26T01:17:49.015Z,17.33
2019-02-26T01:20:24.272Z,16.57
2019-02-26T01:22:51.887Z,17.70
2019-02-26T01:25:22.936Z,17.50
2019-02-26T01:27:55.702Z,17.33
2019-02-26T01:30:27.042Z,18.03
2019-02-26T01:32:58.210Z,17.40
2019-02-26T01:35:30.548Z,18.03
2019-02-26T01:38:00.619Z,18.13
2019-02-26T01:40:30.622Z,18.80
2019-02-26T01:43:03.012Z,18.70
2019-02-26T01:45:32.517Z,18.00
2019-02-26T01:48:04.092Z,19.00
2019-02-26T01:50:35.682Z,18.20
2019-02-26T01:53:05.892Z,18.10
2019-02-26T01:55:35.803Z,18.40
2019-02-26T01:58:05.816Z,17.87
2019-02-26T02:00:35.666Z,18.10
2019-02-26T02:03:05.506Z,17.40
2019-02-26T02:05:35.457Z,16.40
2019-02-26T02:08:09.053Z,18.00
2019-02-26T02:10:37.543Z,17.27
2019-02-26T02:13:09.177Z,18.17
2019-02-26T02:15:40.496Z,17.50
2019-02-26T02:18:11.810Z,18.17
2019-02-26T02:20:41.724Z,17.57
2019-02-26T02:23:11.780Z,16.23
2019-02-26T02:25:43.342Z,16.83
2019-02-26T02:28:19.201Z,16.83
2019-02-26T02:30:46.100Z,17.53
2019-02-26T02:33:19.550Z,16.50
2019-02-26T02:35:47.677Z,17.10
2019-02-26T02:38:20.438Z,17.00
2019-02-26T02:40:51.901Z,17.17
2019-02-26T02:43:23.513Z,17.43
2019-02-26T02:45:55.142Z,17.17
2019-02-26T02:48:24.356Z,16.67
2019-02-26T02:50:54.246Z,16.90
2019-02-26T02:53:26.513Z,16.63
2019-02-26T02:55:55.842Z,17.40
2019-02-26T02:58:26.056Z,16.97
2019-02-26T03:00:57.147Z,17.10
2019-02-26T03:03:28.138Z,18.33
2019-02-26T03:05:58.900Z,17.87
2019-02-26T03:08:29.735Z,17.70
2019-02-26T03:11:00.140Z,18.00
2019-02-26T03:13:30.054Z,17.50
2019-02-26T03:16:01.672Z,16.87
2019-02-26T03:18:31.650Z,17.47
2019-02-26T03:21:04.341Z,17.83
2019-02-26T03:23:36.920Z,17.63
2019-02-26T03:26:10.028Z,17.00
2019-02-26T03:28:39.974Z,17.37
2019-02-26T03:31:09.181Z,18.47
2019-02-26T03:33:39.193Z,18.20
2019-02-26T03:36:11.146Z,17.70
2019-02-26T03:38:44.169Z,17.97
2019-02-26T03:41:12.863Z,18.33
2019-02-26T03:43:43.178Z,18.33
2019-02-26T03:46:13.575Z,17.97
2019-02-26T03:48:43.493Z,18.87
2019-02-26T03:51:17.185Z,18.70
2019-02-26T03:53:45.207Z,18.67
2019-02-26T03:56:17.563Z,18.03
2019-02-26T03:58:47.181Z,17.60
2019-02-26T04:01:20.989Z,18.10
2019-02-26T04:03:49.267Z,17.97
2019-02-26T04:06:19.175Z,17.50
2019-02-26T04:08:51.067Z,18.27
2019-02-26T04:11:22.868Z,18.30
2019-02-26T04:13:54.569Z,17.03
2019-02-26T04:16:24.537Z,17.43
2019-02-26T04:18:54.508Z,18.10
2019-02-26T04:21:24.458Z,17.50
2019-02-26T04:23:54.961Z,17.53
2019-02-26T04:26:34.992Z,17.80
2019-02-26T04:29:14.053Z,17.03
2019-02-26T04:32:24.606Z,16.90
2019-02-26T04:34:57.610Z,16.67
2019-02-26T04:37:58.580Z,16.50
2019-02-26T04:40:38.232Z,16.10
2019-02-26T04:43:31.411Z,16.37
2019-02-26T04:46:28.231Z,16.40
2019-02-26T04:48:57.632Z,15.83
2019-02-26T04:51:27.545Z,15.57
2019-02-26T04:53:59.483Z,16.30
2019-02-26T04:56:31.566Z,15.77
2019-02-26T04:59:03.551Z,15.33
2019-02-26T05:01:34.679Z,14.43
2019-02-26T05:04:04.681Z,15.20
2019-02-26T05:06:34.598Z,14.90
2019-02-26T05:09:07.531Z,16.10
2019-02-26T05:11:40.651Z,14.63
2019-02-26T05:14:09.853Z,14.90
2019-02-26T05:16:41.043Z,14.60
2019-02-26T05:19:13.539Z,13.63
2019-02-26T05:21:42.628Z,14.03
2019-02-26T05:24:14.930Z,14.07
2019-02-26T05:26:44.129Z,13.50
2019-02-26T05:29:14.433Z,13.93
2019-02-26T05:31:44.447Z,14.03
2019-02-26T05:34:17.425Z,14.00
2019-02-26T05:36:46.490Z,14.47
2019-02-26T05:39:20.395Z,14.00
2019-02-26T05:41:52.339Z,15.07
2019-02-26T05:44:20.010Z,15.43
2019-02-26T05:46:52.640Z,13.93
2019-02-26T05:49:21.719Z,14.30
2019-02-26T05:51:53.496Z,14.73
2019-02-26T05:54:24.516Z,15.07
2019-02-26T05:56:54.501Z,14.63
2019-02-26T05:59:24.508Z,14.13
2019-02-26T06:01:55.944Z,13.90
2019-02-26T06:04:26.298Z,14.40
2019-02-26T06:06:58.985Z,14.33
2019-02-26T06:09:30.420Z,15.17
2019-02-26T06:11:59.475Z,15.37
2019-02-26T06:14:31.276Z,14.97
2019-02-26T06:17:01.176Z,14.67
2019-02-26T06:19:42.290Z,15.07
2019-02-26T06:22:17.222Z,14.57
2019-02-26T06:24:44.485Z,14.37
2019-02-26T06:27:18.279Z,13.80
2019-02-26T06:29:47.257Z,15.03
2019-02-26T06:32:20.023Z,15.60
2019-02-26T06:34:50.026Z,18.63
2019-02-26T06:37:24.670Z,28.73
2019-02-26T06:39:57.285Z,24.90
2019-02-26T06:42:28.344Z,23.83
2019-02-26T06:44:58.596Z,24.37
2019-02-26T06:47:30.995Z,22.57
2019-02-26T06:50:00.261Z,21.43
2019-02-26T06:52:35.067Z,20.87
2019-02-26T06:55:03.552Z,19.50
2019-02-26T06:57:33.508Z,19.23
2019-02-26T07:00:04.581Z,18.77
2019-02-26T07:02:34.514Z,16.50
2019-02-26T07:05:04.921Z,16.37
2019-02-26T07:07:35.912Z,15.20
2019-02-26T07:10:13.790Z,16.67
2019-02-26T07:12:50.535Z,14.97
2019-02-26T07:15:20.892Z,15.20
2019-02-26T07:17:51.103Z,14.90
2019-02-26T07:20:21.012Z,15.10
2019-02-26T07:22:51.630Z,16.10
2019-02-26T07:25:22.118Z,15.33
2019-02-26T07:27:53.694Z,15.07
2019-02-26T07:30:23.821Z,14.57
2019-02-26T07:32:53.726Z,15.03
2019-02-26T07:35:23.641Z,15.87
2019-02-26T07:37:54.619Z,16.80
2019-02-26T07:40:25.336Z,16.97
2019-02-26T07:42:55.348Z,17.13
2019-02-26T07:45:27.439Z,17.40
2019-02-26T07:47:58.474Z,17.20
2019-02-26T07:50:31.437Z,17.93
2019-02-26T07:53:00.900Z,17.97
2019-02-26T07:55:32.700Z,18.13
2019-02-26T07:58:03.188Z,18.37
2019-02-26T08:00:37.004Z,18.17
2019-02-26T08:03:04.782Z,18.43
2019-02-26T08:05:34.790Z,19.43
2019-02-26T08:08:04.704Z,19.80
2019-02-26T08:10:37.196Z,19.13
2019-02-26T08:13:08.003Z,20.70
2019-02-26T08:15:39.879Z,19.97
2019-02-26T08:18:09.863Z,20.17
2019-02-26T08:20:40.372Z,20.87
2019-02-26T08:23:10.675Z,21.83
2019-02-26T08:25:41.066Z,20.67
2019-02-26T08:28:13.012Z,21.67
2019-02-26T08:30:45.243Z,21.33
2019-02-26T08:33:15.046Z,22.00
2019-02-26T08:35:45.157Z,21.47
2019-02-26T08:38:16.322Z,21.43
2019-02-26T08:40:46.457Z,22.37
2019-02-26T08:43:16.665Z,23.27
2019-02-26T08:45:46.579Z,22.43
2019-02-26T08:48:17.330Z,22.07
2019-02-26T08:50:48.176Z,22.03
2019-02-26T08:53:19.739Z,22.90
2019-02-26T08:55:51.548Z,22.37
2019-02-26T08:58:21.456Z,21.43
2019-02-26T09:00:51.466Z,21.10
2019-02-26T09:03:21.578Z,20.60
2019-02-26T09:05:53.829Z,20.17
2019-02-26T09:08:23.568Z,19.87
2019-02-26T09:10:53.482Z,19.83
2019-02-26T09:13:25.461Z,19.50
2019-02-26T09:15:58.172Z,19.43
2019-02-26T09:18:28.316Z,19.07
2019-02-26T09:20:59.623Z,18.70
2019-02-26T09:23:30.526Z,18.47
2019-02-26T09:26:02.573Z,15.77
2019-02-26T09:28:33.100Z,17.33
2019-02-26T09:31:04.682Z,15.63
2019-02-26T09:33:37.593Z,14.57
2019-02-26T09:36:10.516Z,15.20
2019-02-26T09:38:39.919Z,14.40
2019-02-26T09:41:11.855Z,13.73
2019-02-26T09:43:43.382Z,13.73
2019-02-26T09:46:16.321Z,13.07
2019-02-26T09:48:46.189Z,13.87
2019-02-26T09:51:16.696Z,13.80
2019-02-26T09:53:47.650Z,14.13
2019-02-26T09:56:18.592Z,13.50
2019-02-26T09:58:50.698Z,14.33
2019-02-26T10:01:20.359Z,14.70
2019-02-26T10:03:50.274Z,13.07
2019-02-26T10:06:21.659Z,14.87
2019-02-26T10:08:53.326Z,12.73
2019-02-26T10:11:27.408Z,13.40
2019-02-26T10:13:55.826Z,12.53
2019-02-26T10:16:28.135Z,12.47
2019-02-26T10:18:57.427Z,13.33
2019-02-26T10:21:27.336Z,12.73
2019-02-26T10:23:59.306Z,12.60
2019-02-26T10:26:30.768Z,12.03
2019-02-26T10:29:04.417Z,12.47
2019-02-26T10:31:32.694Z,12.20
2019-02-26T10:34:03.106Z,12.10
2019-02-26T10:36:37.790Z,12.83
2019-02-26T10:39:08.523Z,11.73
2019-02-26T10:41:39.888Z,11.70
2019-02-26T10:44:10.417Z,11.80
2019-02-26T10:46:42.546Z,12.17
2019-02-26T10:49:12.477Z,12.13
2019-02-26T10:51:43.118Z,12.67
2019-02-26T10:54:17.890Z,12.00
2019-02-26T10:56:45.095Z,12.70
2019-02-26T10:59:18.787Z,12.77
2019-02-26T11:01:49.671Z,11.93
2019-02-26T11:04:19.164Z,11.80
2019-02-26T11:06:49.503Z,10.47
2019-02-26T11:09:25.340Z,10.97
2019-02-26T11:11:54.959Z,10.43
2019-02-26T11:14:25.312Z,10.87
2019-02-26T11:16:55.709Z,10.33
2019-02-26T11:19:27.337Z,10.30
2019-02-26T11:21:58.679Z,10.43
2019-02-26T11:24:31.403Z,10.20
2019-02-26T11:27:00.967Z,10.53
2019-02-26T11:29:33.805Z,10.63
2019-02-26T11:32:04.515Z,10.43
2019-02-26T11:34:37.702Z,10.23
2019-02-26T11:37:08.874Z,10.93
2019-02-26T11:39:38.497Z,10.13
2019-02-26T11:42:10.450Z,9.60
2019-02-26T11:44:40.095Z,9.70
2019-02-26T11:47:11.137Z,9.63
2019-02-26T11:49:44.123Z,9.40
2019-02-26T11:52:13.770Z,9.10
2019-02-26T11:54:44.633Z,9.40
2019-02-26T11:57:15.817Z,9.10
2019-02-26T11:59:46.846Z,9.00
2019-02-26T12:02:25.179Z,8.67
2019-02-26T12:04:48.444Z,8.40
2019-02-26T12:07:18.556Z,8.63
2019-02-26T12:09:48.959Z,7.90
2019-02-26T12:12:18.872Z,7.67
2019-02-26T12:14:48.981Z,7.70
2019-02-26T12:17:18.993Z,7.87
2019-02-26T12:19:51.510Z,7.20
2019-02-26T12:22:22.743Z,7.40
2019-02-26T12:24:55.706Z,7.30
2019-02-26T12:27:24.544Z,7.40
2019-02-26T12:29:54.770Z,6.50
2019-02-26T12:32:26.882Z,6.73
2019-02-26T12:34:57.070Z,6.40
2019-02-26T12:37:27.221Z,6.43
2019-02-26T12:39:57.928Z,5.97
2019-02-26T12:42:28.356Z,6.53
2019-02-26T12:45:01.854Z,6.20
2019-02-26T12:47:30.340Z,5.53
2019-02-26T12:50:02.748Z,6.00
2019-02-26T12:52:33.019Z,6.10
2019-02-26T12:55:04.196Z,5.70
2019-02-26T12:57:34.713Z,6.27
2019-02-26T13:00:10.663Z,6.07
2019-02-26T13:02:39.994Z,5.77
2019-02-26T13:05:13.477Z,5.77
2019-02-26T13:07:44.695Z,5.80
2019-02-26T13:10:24.827Z,5.40
2019-02-26T13:12:59.304Z,5.87
2019-02-26T13:15:26.458Z,6.03
2019-02-26T13:17:56.486Z,5.67
2019-02-26T13:20:28.200Z,5.90
2019-02-26T13:25:30.668Z,6.00
2019-02-26T13:28:00.937Z,5.40
2019-02-26T13:30:30.923Z,5.87
2019-02-26T13:33:05.326Z,5.53
2019-02-26T13:35:33.005Z,5.77
2019-02-26T13:38:06.004Z,5.77
2019-02-26T13:40:38.659Z,5.67
2019-02-26T13:43:09.430Z,6.20
2019-02-26T13:45:39.738Z,5.87
2019-02-26T13:48:10.434Z,5.87
2019-02-26T13:50:40.643Z,5.77
2019-02-26T13:53:10.567Z,5.60
2019-02-26T13:55:40.539Z,5.70
2019-02-26T13:58:12.042Z,5.80
2019-02-26T14:00:43.035Z,5.70
2019-02-26T14:03:13.063Z,5.43
2019-02-26T14:05:43.468Z,6.00
2019-02-26T14:08:13.480Z,5.40
2019-02-26T14:10:43.733Z,6.00
2019-02-26T14:13:13.698Z,6.00
2019-02-26T14:15:43.630Z,6.03
2019-02-26T14:18:13.674Z,5.33
2019-02-26T14:20:45.446Z,5.73
2019-02-26T14:23:15.515Z,5.33
2019-02-26T14:25:46.319Z,5.57
2019-02-26T14:28:16.228Z,5.10
2019-02-26T14:30:46.140Z,5.17
2019-02-26T14:33:16.352Z,5.37
2019-02-26T14:35:46.766Z,5.67
2019-02-26T14:38:16.768Z,5.53
2019-02-26T14:40:46.971Z,5.87
2019-02-26T14:43:17.084Z,5.77
2019-02-26T14:45:46.999Z,5.37
2019-02-26T14:48:16.911Z,5.50
2019-02-26T14:50:46.823Z,5.90
2019-02-26T14:53:16.739Z,5.50
2019-02-26T14:55:47.144Z,5.80
2019-02-26T14:58:17.351Z,6.13
2019-02-26T15:00:57.173Z,6.00
2019-02-26T15:03:19.151Z,5.40
2019-02-26T15:05:49.061Z,6.00
2019-02-26T15:08:19.267Z,5.93
2019-02-26T15:10:49.178Z,5.70
2019-02-26T15:13:19.095Z,5.73
2019-02-26T15:15:49.005Z,5.87
2019-02-26T15:18:18.918Z,6.30
2019-02-26T15:20:49.129Z,6.17
2019-02-26T15:23:19.041Z,5.90
2019-02-26T15:25:48.954Z,6.20
2019-02-26T15:28:18.867Z,6.27
2019-02-26T15:30:48.786Z,5.67
2019-02-26T15:33:18.998Z,6.83
2019-02-26T15:35:49.003Z,6.03
2019-02-26T15:38:19.015Z,6.20
2019-02-26T15:40:51.144Z,5.90
2019-02-26T15:43:20.788Z,6.13
2019-02-26T15:45:52.241Z,6.10
2019-02-26T15:48:22.427Z,6.10
2019-02-26T15:50:52.318Z,6.33
2019-02-26T15:53:23.760Z,6.20
2019-02-26T15:55:59.024Z,6.03
2019-02-26T15:58:26.192Z,6.00
2019-02-26T16:00:56.394Z,5.67
2019-02-26T16:03:29.476Z,6.23
2019-02-26T16:05:58.286Z,6.07
2019-02-26T16:08:34.482Z,6.03
2019-02-26T16:11:00.181Z,5.80
2019-02-26T16:13:30.200Z,5.50
2019-02-26T16:16:00.397Z,6.03
2019-02-26T16:18:30.239Z,6.40
2019-02-26T16:21:00.425Z,6.53
2019-02-26T16:23:30.824Z,6.40
2019-02-26T16:26:00.820Z,6.47
2019-02-26T16:28:30.854Z,6.50
2019-02-26T16:31:00.768Z,7.13
2019-02-26T16:33:30.773Z,6.97
2019-02-26T16:36:00.689Z,6.57
2019-02-26T16:38:30.699Z,6.60
2019-02-26T16:41:02.852Z,5.97
2019-02-26T16:43:32.689Z,6.60
2019-02-26T16:46:03.094Z,7.13
2019-02-26T16:48:33.011Z,6.90
2019-02-26T16:51:03.128Z,7.40
2019-02-26T16:53:34.220Z,7.57
2019-02-26T16:56:04.409Z,7.33
2019-02-26T16:58:35.585Z,7.10
2019-02-26T17:01:08.187Z,7.53
2019-02-26T17:03:38.194Z,13.93
2019-02-26T17:06:08.203Z,16.23
2019-02-26T17:08:38.214Z,17.33
2019-02-26T17:11:08.719Z,18.73
2019-02-26T17:13:42.688Z,11.33
2019-02-26T17:16:10.902Z,8.60
2019-02-26T17:18:42.811Z,8.63
2019-02-26T17:21:13.088Z,8.43
2019-02-26T17:23:44.775Z,8.73
2019-02-26T17:26:14.685Z,8.30
2019-02-26T17:28:44.598Z,8.03
2019-02-26T17:31:14.512Z,8.03
2019-02-26T17:33:44.730Z,7.40
2019-02-26T17:36:16.405Z,7.80
2019-02-26T17:38:46.611Z,7.80
2019-02-26T17:41:16.720Z,8.10
2019-02-26T17:43:46.645Z,8.03
2019-02-26T17:46:16.649Z,10.83
2019-02-26T17:48:46.457Z,10.70
2019-02-26T17:51:18.743Z,9.73
2019-02-26T17:53:48.111Z,9.80
2019-02-26T17:56:18.073Z,11.83
2019-02-26T17:58:49.454Z,10.80
2019-02-26T18:01:19.676Z,11.07
2019-02-26T18:03:49.973Z,11.43
2019-02-26T18:06:19.888Z,11.57
2019-02-26T18:08:49.999Z,12.10
2019-02-26T18:11:20.872Z,12.57
2019-02-26T18:13:51.897Z,12.43
2019-02-26T18:16:22.103Z,11.90
2019-02-26T18:18:52.407Z,10.90
2019-02-26T18:21:22.415Z,11.80
2019-02-26T18:23:52.649Z,11.90
2019-02-26T18:26:22.832Z,11.30
2019-02-26T18:28:53.223Z,11.57
2019-02-26T18:31:26.385Z,12.37
2019-02-26T18:33:55.323Z,11.70
2019-02-26T18:36:25.338Z,11.30
2019-02-26T18:38:55.743Z,12.67
2019-02-26T18:41:25.851Z,13.40
2019-02-26T18:43:57.439Z,15.03
2019-02-26T18:46:27.611Z,14.67
2019-02-26T18:48:57.559Z,21.00
2019-02-26T18:51:27.872Z,21.50
2019-02-26T18:53:57.901Z,22.43
2019-02-26T18:56:27.895Z,18.07
2019-02-26T18:58:57.913Z,17.80
2019-02-26T19:01:28.458Z,16.33
2019-02-26T19:03:59.984Z,17.37
2019-02-26T19:06:29.902Z,16.87
2019-02-26T19:09:00.008Z,15.73
2019-02-26T19:11:30.121Z,15.87
2019-02-26T19:14:00.429Z,15.83
2019-02-26T19:16:30.384Z,15.30
2019-02-26T19:19:00.349Z,16.40
2019-02-26T19:21:30.371Z,15.50
2019-02-26T19:24:04.411Z,15.73
2019-02-26T19:26:32.454Z,15.87
2019-02-26T19:29:02.558Z,17.03
2019-02-26T19:31:32.374Z,18.07
2019-02-26T19:34:02.690Z,17.40
2019-02-26T19:36:32.792Z,17.97
2019-02-26T19:39:02.712Z,17.47
2019-02-26T19:41:32.849Z,18.30
2019-02-26T19:44:02.698Z,19.83
2019-02-26T19:46:32.542Z,21.47
2019-02-26T19:49:05.555Z,21.10
2019-02-26T19:51:34.809Z,21.73
2019-02-26T19:54:07.006Z,22.47
2019-02-26T19:56:37.013Z,29.43
2019-02-26T19:59:07.123Z,32.23
2019-02-26T20:01:37.114Z,30.77
2019-02-26T20:04:07.533Z,27.53
2019-02-26T20:06:37.846Z,26.10
2019-02-26T20:09:08.610Z,24.93
2019-02-26T20:11:38.855Z,24.53
2019-02-26T20:14:11.395Z,26.63
2019-02-26T20:16:40.472Z,25.60
2019-02-26T20:19:10.469Z,23.83
2019-02-26T20:21:40.605Z,25.10
2019-02-26T20:24:10.582Z,25.57
2019-02-26T20:26:40.750Z,25.97
2019-02-26T20:29:10.701Z,25.50
2019-02-26T20:31:40.615Z,28.17
2019-02-26T20:34:10.425Z,28.90
2019-02-26T20:36:40.737Z,33.27
2019-02-26T20:39:10.796Z,32.93
2019-02-26T20:41:41.160Z,44.67
2019-02-26T20:44:11.269Z,52.67
2019-02-26T20:46:41.277Z,57.43
2019-02-26T20:49:12.341Z,56.77
2019-02-26T20:51:43.171Z,54.77
2019-02-26T20:54:13.965Z,65.50
2019-02-26T20:56:44.852Z,50.57
2019-02-26T20:59:17.812Z,50.43
2019-02-26T21:01:47.160Z,50.70
2019-02-26T21:04:17.157Z,53.20
2019-02-26T21:06:50.666Z,48.47
2019-02-26T21:09:19.138Z,42.40
2019-02-26T21:11:49.135Z,40.17
2019-02-26T21:14:19.495Z,54.83
2019-02-26T21:16:53.452Z,66.73
2019-02-26T21:19:21.925Z,63.97
2019-02-26T21:21:51.863Z,72.17
2019-02-26T21:24:21.722Z,76.97
2019-02-26T21:26:52.929Z,82.57
2019-02-26T21:29:23.663Z,55.73
2019-02-26T21:31:53.872Z,41.60
2019-02-26T21:34:24.583Z,77.73
2019-02-26T21:36:54.878Z,49.97
2019-02-26T21:39:24.922Z,45.07
2019-02-26T21:41:56.353Z,35.27
2019-02-26T21:44:26.529Z,34.63
2019-02-26T21:46:56.951Z,33.87
2019-02-26T21:49:27.105Z,32.73
2019-02-26T21:51:57.395Z,36.30
2019-02-26T21:54:27.333Z,36.60
2019-02-26T21:56:57.433Z,33.17
2019-02-26T21:59:27.691Z,33.17
2019-02-26T22:01:57.674Z,35.07
2019-02-26T22:04:31.707Z,42.57
2019-02-26T22:06:59.638Z,30.33
2019-02-26T22:09:30.178Z,30.17
2019-02-26T22:12:00.643Z,26.33
2019-02-26T22:14:30.560Z,44.17
2019-02-26T22:17:00.492Z,32.07
2019-02-26T22:19:30.490Z,40.37
2019-02-26T22:22:00.617Z,36.63
2019-02-26T22:24:30.633Z,33.70
2019-02-26T22:27:00.654Z,36.83
2019-02-26T22:29:30.633Z,33.80
2019-02-26T22:32:02.379Z,31.17
2019-02-26T22:34:32.473Z,39.53
2019-02-26T22:37:07.005Z,47.00
2019-02-26T22:39:34.661Z,46.93
2019-02-26T22:42:07.822Z,44.00
2019-02-26T22:44:36.505Z,44.40
2019-02-26T22:47:07.021Z,38.33
2019-02-26T22:49:38.161Z,27.33
2019-02-26T22:52:08.211Z,27.10
2019-02-26T22:54:40.678Z,29.30
2019-02-26T22:57:10.113Z,57.20
2019-02-26T22:59:40.897Z,56.23
2019-02-26T23:02:12.419Z,37.93
2019-02-26T23:04:42.741Z,30.63
2019-02-26T23:07:13.213Z,25.77
2019-02-26T23:09:43.595Z,25.17
2019-02-26T23:12:14.292Z,24.20
2019-02-26T23:14:44.517Z,23.97
2019-02-26T23:17:14.709Z,23.20
2019-02-26T23:19:45.130Z,22.60
2019-02-26T23:22:15.029Z,22.87
2019-02-26T23:24:46.028Z,22.90
2019-02-26T23:27:16.082Z,22.20
2019-02-26T23:29:46.681Z,23.77
2019-02-26T23:32:17.727Z,25.30
2019-02-26T23:34:54.637Z,31.63
2019-02-26T23:37:23.916Z,29.40
2019-02-26T23:39:54.255Z,24.67
2019-02-26T23:42:24.163Z,24.43
2019-02-26T23:44:54.407Z,24.00
2019-02-26T23:47:24.527Z,23.97
2019-02-26T23:49:55.402Z,25.27
2019-02-26T23:52:27.763Z,26.13
2019-02-26T23:54:57.364Z,25.47
2019-02-26T23:57:27.950Z,25.73
2019-02-26T23:59:57.884Z,26.30
